sensor_id;sensor_type;location;lat;lon;timestamp;temperature;humidity
3310;DHT22;1667;53.238;10.394;2022-09-01T00:00:45;17.80;81.90
3310;DHT22;1667;53.238;10.394;2022-09-01T00:05:45;17.70;82.50
3310;DHT22;1667;53.238;10.394;2022-09-01T00:10:45;17.70;82.60
3310;DHT22;1667;53.238;10.394;2022-09-01T00:15:45;17.70;82.50
3310;DHT22;1667;53.238;10.394;2022-09-01T00:20:44;17.60;82.40
3310;DHT22;1667;53.238;10.394;2022-09-01T00:25:42;17.60;83.20
3310;DHT22;1667;53.238;10.394;2022-09-01T00:30:40;17.60;83.30
3310;DHT22;1667;53.238;10.394;2022-09-01T00:35:40;17.60;82.70
3310;DHT22;1667;53.238;10.394;2022-09-01T00:40:39;17.50;83.20
3310;DHT22;1667;53.238;10.394;2022-09-01T00:45:37;17.50;83.50
3310;DHT22;1667;53.238;10.394;2022-09-01T00:50:36;17.50;83.30
3310;DHT22;1667;53.238;10.394;2022-09-01T00:55:36;17.40;83.40
3310;DHT22;1667;53.238;10.394;2022-09-01T01:00:37;17.40;84.40
3310;DHT22;1667;53.238;10.394;2022-09-01T01:05:42;17.40;84.20
3310;DHT22;1667;53.238;10.394;2022-09-01T01:10:45;17.30;84.60
3310;DHT22;1667;53.238;10.394;2022-09-01T01:15:44;17.30;84.60
3310;DHT22;1667;53.238;10.394;2022-09-01T01:20:42;17.30;84.70
3310;DHT22;1667;53.238;10.394;2022-09-01T01:25:59;17.20;84.10
3310;DHT22;1667;53.238;10.394;2022-09-01T01:31:00;17.20;85.30
3310;DHT22;1667;53.238;10.394;2022-09-01T01:35:59;17.20;85.70
3310;DHT22;1667;53.238;10.394;2022-09-01T01:40:59;17.10;85.90
3310;DHT22;1667;53.238;10.394;2022-09-01T01:45:58;17.10;85.90
3310;DHT22;1667;53.238;10.394;2022-09-01T01:51:05;17.00;86.20
3310;DHT22;1667;53.238;10.394;2022-09-01T01:56:05;17.00;86.10
3310;DHT22;1667;53.238;10.394;2022-09-01T02:01:05;16.90;86.60
3310;DHT22;1667;53.238;10.394;2022-09-01T02:06:09;16.90;86.30
3310;DHT22;1667;53.238;10.394;2022-09-01T02:11:10;16.80;86.70
3310;DHT22;1667;53.238;10.394;2022-09-01T02:16:09;16.90;86.80
3310;DHT22;1667;53.238;10.394;2022-09-01T02:21:10;16.90;86.40
3310;DHT22;1667;53.238;10.394;2022-09-01T02:26:17;16.90;86.20
3310;DHT22;1667;53.238;10.394;2022-09-01T02:31:19;16.80;86.60
3310;DHT22;1667;53.238;10.394;2022-09-01T02:36:19;16.80;86.40
3310;DHT22;1667;53.238;10.394;2022-09-01T02:41:20;16.80;86.50
3310;DHT22;1667;53.238;10.394;2022-09-01T02:46:20;16.80;86.40
3310;DHT22;1667;53.238;10.394;2022-09-01T02:51:23;16.70;86.20
3310;DHT22;1667;53.238;10.394;2022-09-01T02:56:24;16.70;86.30
3310;DHT22;1667;53.238;10.394;2022-09-01T03:01:27;16.60;86.50
3310;DHT22;1667;53.238;10.394;2022-09-01T03:06:28;16.50;86.70
3310;DHT22;1667;53.238;10.394;2022-09-01T03:11:31;16.50;87.10
3310;DHT22;1667;53.238;10.394;2022-09-01T03:16:30;16.40;87.60
3310;DHT22;1667;53.238;10.394;2022-09-01T03:21:29;16.30;87.30
3310;DHT22;1667;53.238;10.394;2022-09-01T03:26:30;16.30;87.90
3310;DHT22;1667;53.238;10.394;2022-09-01T03:31:29;16.20;88.30
3310;DHT22;1667;53.238;10.394;2022-09-01T03:36:30;16.10;88.30
3310;DHT22;1667;53.238;10.394;2022-09-01T03:41:31;16.10;88.00
3310;DHT22;1667;53.238;10.394;2022-09-01T03:46:33;16.10;88.20
3310;DHT22;1667;53.238;10.394;2022-09-01T03:51:34;16.10;88.40
3310;DHT22;1667;53.238;10.394;2022-09-01T03:56:37;16.00;88.60
3310;DHT22;1667;53.238;10.394;2022-09-01T04:01:41;15.90;88.90
3310;DHT22;1667;53.238;10.394;2022-09-01T04:06:42;15.90;88.50
3310;DHT22;1667;53.238;10.394;2022-09-01T04:11:44;15.90;89.10
3310;DHT22;1667;53.238;10.394;2022-09-01T04:16:46;15.90;89.20
3310;DHT22;1667;53.238;10.394;2022-09-01T04:22:03;15.90;89.10
3310;DHT22;1667;53.238;10.394;2022-09-01T04:27:09;15.80;89.40
3310;DHT22;1667;53.238;10.394;2022-09-01T04:32:08;15.80;89.20
3310;DHT22;1667;53.238;10.394;2022-09-01T04:37:13;15.70;89.80
3310;DHT22;1667;53.238;10.394;2022-09-01T04:42:15;15.70;89.80
3310;DHT22;1667;53.238;10.394;2022-09-01T04:47:15;15.60;90.30
3310;DHT22;1667;53.238;10.394;2022-09-01T04:52:15;15.60;90.20
3310;DHT22;1667;53.238;10.394;2022-09-01T04:57:15;15.60;90.00
3310;DHT22;1667;53.238;10.394;2022-09-01T05:02:15;15.60;90.00
3310;DHT22;1667;53.238;10.394;2022-09-01T05:07:14;15.60;89.70
3310;DHT22;1667;53.238;10.394;2022-09-01T05:12:15;15.50;89.50
3310;DHT22;1667;53.238;10.394;2022-09-01T05:17:19;15.60;90.00
3310;DHT22;1667;53.238;10.394;2022-09-01T05:22:19;15.60;90.20
3310;DHT22;1667;53.238;10.394;2022-09-01T05:27:29;15.60;90.40
3310;DHT22;1667;53.238;10.394;2022-09-01T05:32:28;15.60;90.70
3310;DHT22;1667;53.238;10.394;2022-09-01T05:37:28;15.60;90.70
3310;DHT22;1667;53.238;10.394;2022-09-01T05:42:26;15.60;91.30
3310;DHT22;1667;53.238;10.394;2022-09-01T05:47:27;15.60;91.50
3310;DHT22;1667;53.238;10.394;2022-09-01T05:52:26;15.70;91.90
3310;DHT22;1667;53.238;10.394;2022-09-01T05:57:27;15.80;91.90
3310;DHT22;1667;53.238;10.394;2022-09-01T06:02:34;15.80;92.70
3310;DHT22;1667;53.238;10.394;2022-09-01T06:07:33;15.90;92.50
3310;DHT22;1667;53.238;10.394;2022-09-01T06:12:35;16.10;94.60
3310;DHT22;1667;53.238;10.394;2022-09-01T06:17:35;16.20;94.60
3310;DHT22;1667;53.238;10.394;2022-09-01T06:22:34;16.30;95.80
3310;DHT22;1667;53.238;10.394;2022-09-01T06:27:33;16.40;94.50
3310;DHT22;1667;53.238;10.394;2022-09-01T06:32:36;16.60;94.90
3310;DHT22;1667;53.238;10.394;2022-09-01T06:37:35;16.80;94.80
3310;DHT22;1667;53.238;10.394;2022-09-01T06:42:34;16.90;96.00
3310;DHT22;1667;53.238;10.394;2022-09-01T06:47:35;17.10;94.50
3310;DHT22;1667;53.238;10.394;2022-09-01T06:52:33;17.30;96.10
3310;DHT22;1667;53.238;10.394;2022-09-01T06:57:52;17.50;95.00
3310;DHT22;1667;53.238;10.394;2022-09-01T07:03:14;17.60;94.20
3310;DHT22;1667;53.238;10.394;2022-09-01T07:08:34;17.80;93.80
3310;DHT22;1667;53.238;10.394;2022-09-01T07:14:00;18.00;93.50
3310;DHT22;1667;53.238;10.394;2022-09-01T07:19:16;18.30;93.60
3310;DHT22;1667;53.238;10.394;2022-09-01T07:24:20;18.60;92.80
3310;DHT22;1667;53.238;10.394;2022-09-01T07:29:45;19.00;92.10
3310;DHT22;1667;53.238;10.394;2022-09-01T07:34:46;19.30;90.60
3310;DHT22;1667;53.238;10.394;2022-09-01T07:39:46;19.60;90.10
3310;DHT22;1667;53.238;10.394;2022-09-01T07:45:06;19.90;89.10
3310;DHT22;1667;53.238;10.394;2022-09-01T07:50:28;20.20;87.10
3310;DHT22;1667;53.238;10.394;2022-09-01T07:55:47;20.50;85.70
3310;DHT22;1667;53.238;10.394;2022-09-01T08:00:48;20.90;85.60
3310;DHT22;1667;53.238;10.394;2022-09-01T08:05:49;21.10;83.90
3310;DHT22;1667;53.238;10.394;2022-09-01T08:10:51;21.20;84.00
3310;DHT22;1667;53.238;10.394;2022-09-01T08:16:02;21.30;82.60
3310;DHT22;1667;53.238;10.394;2022-09-01T08:21:07;21.50;82.10
3310;DHT22;1667;53.238;10.394;2022-09-01T08:26:25;21.60;82.50
3310;DHT22;1667;53.238;10.394;2022-09-01T08:31:24;21.90;81.00
3310;DHT22;1667;53.238;10.394;2022-09-01T08:36:30;22.10;79.40
3310;DHT22;1667;53.238;10.394;2022-09-01T08:41:50;22.30;77.60
3310;DHT22;1667;53.238;10.394;2022-09-01T08:47:00;22.70;77.60
3310;DHT22;1667;53.238;10.394;2022-09-01T08:52:07;22.90;76.70
3310;DHT22;1667;53.238;10.394;2022-09-01T08:57:12;23.10;75.90
3310;DHT22;1667;53.238;10.394;2022-09-01T09:02:42;23.30;75.50
3310;DHT22;1667;53.238;10.394;2022-09-01T09:07:57;23.40;73.80
3310;DHT22;1667;53.238;10.394;2022-09-01T09:13:09;23.60;73.30
3310;DHT22;1667;53.238;10.394;2022-09-01T09:18:15;23.80;74.40
3310;DHT22;1667;53.238;10.394;2022-09-01T09:23:45;24.10;67.80
3310;DHT22;1667;53.238;10.394;2022-09-01T09:28:43;24.30;67.20
3310;DHT22;1667;53.238;10.394;2022-09-01T09:33:43;24.30;68.60
3310;DHT22;1667;53.238;10.394;2022-09-01T09:39:07;24.40;69.10
3310;DHT22;1667;53.238;10.394;2022-09-01T09:44:20;24.70;64.00
3310;DHT22;1667;53.238;10.394;2022-09-01T09:49:20;24.80;64.40
3310;DHT22;1667;53.238;10.394;2022-09-01T09:54:36;24.80;65.20
3310;DHT22;1667;53.238;10.394;2022-09-01T09:59:37;25.00;66.30
3310;DHT22;1667;53.238;10.394;2022-09-01T10:04:55;25.10;66.40
3310;DHT22;1667;53.238;10.394;2022-09-01T10:09:58;25.30;63.10
3310;DHT22;1667;53.238;10.394;2022-09-01T10:15:00;25.60;61.30
3310;DHT22;1667;53.238;10.394;2022-09-01T10:20:12;25.80;59.40
3310;DHT22;1667;53.238;10.394;2022-09-01T10:25:17;25.70;59.80
3310;DHT22;1667;53.238;10.394;2022-09-01T10:30:17;25.90;59.90
3310;DHT22;1667;53.238;10.394;2022-09-01T10:35:20;25.90;59.20
3310;DHT22;1667;53.238;10.394;2022-09-01T10:40:37;26.10;58.90
3310;DHT22;1667;53.238;10.394;2022-09-01T10:45:39;26.30;58.20
3310;DHT22;1667;53.238;10.394;2022-09-01T10:50:39;26.30;59.00
3310;DHT22;1667;53.238;10.394;2022-09-01T10:55:42;26.40;57.80
3310;DHT22;1667;53.238;10.394;2022-09-01T11:00:50;26.50;57.70
3310;DHT22;1667;53.238;10.394;2022-09-01T11:06:08;26.60;56.70
3310;DHT22;1667;53.238;10.394;2022-09-01T11:11:20;26.70;58.00
3310;DHT22;1667;53.238;10.394;2022-09-01T11:16:32;26.90;57.70
3310;DHT22;1667;53.238;10.394;2022-09-01T11:21:46;27.10;56.50
3310;DHT22;1667;53.238;10.394;2022-09-01T11:26:48;27.20;56.80
3310;DHT22;1667;53.238;10.394;2022-09-01T11:31:47;27.40;56.40
3310;DHT22;1667;53.238;10.394;2022-09-01T11:36:51;27.40;55.40
3310;DHT22;1667;53.238;10.394;2022-09-01T11:41:54;27.30;54.60
3310;DHT22;1667;53.238;10.394;2022-09-01T11:47:03;27.00;55.20
3310;DHT22;1667;53.238;10.394;2022-09-01T11:52:14;26.80;56.20
3310;DHT22;1667;53.238;10.394;2022-09-01T11:57:22;26.60;56.60
3310;DHT22;1667;53.238;10.394;2022-09-01T12:02:24;26.40;56.90
3310;DHT22;1667;53.238;10.394;2022-09-01T12:07:39;26.30;57.10
3310;DHT22;1667;53.238;10.394;2022-09-01T12:12:39;26.10;56.10
3310;DHT22;1667;53.238;10.394;2022-09-01T12:17:38;26.00;57.00
3310;DHT22;1667;53.238;10.394;2022-09-01T12:22:36;25.90;57.00
3310;DHT22;1667;53.238;10.394;2022-09-01T12:27:34;25.80;56.40
3310;DHT22;1667;53.238;10.394;2022-09-01T12:32:34;25.70;56.10
3310;DHT22;1667;53.238;10.394;2022-09-01T12:37:32;25.70;56.30
3310;DHT22;1667;53.238;10.394;2022-09-01T12:42:32;26.00;56.80
3310;DHT22;1667;53.238;10.394;2022-09-01T12:47:46;26.20;57.30
3310;DHT22;1667;53.238;10.394;2022-09-01T12:52:48;26.50;56.50
3310;DHT22;1667;53.238;10.394;2022-09-01T12:57:49;26.60;54.20
3310;DHT22;1667;53.238;10.394;2022-09-01T13:03:04;26.60;54.30
3310;DHT22;1667;53.238;10.394;2022-09-01T13:08:06;26.70;55.00
3310;DHT22;1667;53.238;10.394;2022-09-01T13:13:06;26.80;54.60
3310;DHT22;1667;53.238;10.394;2022-09-01T13:18:05;26.90;54.10
3310;DHT22;1667;53.238;10.394;2022-09-01T13:23:04;26.90;53.90
3310;DHT22;1667;53.238;10.394;2022-09-01T13:28:02;26.50;54.30
3310;DHT22;1667;53.238;10.394;2022-09-01T13:33:02;26.30;54.60
3310;DHT22;1667;53.238;10.394;2022-09-01T13:38:21;26.10;55.10
3310;DHT22;1667;53.238;10.394;2022-09-01T13:43:21;25.70;55.30
3310;DHT22;1667;53.238;10.394;2022-09-01T13:48:22;25.70;56.10
3310;DHT22;1667;53.238;10.394;2022-09-01T13:53:42;25.60;55.50
3310;DHT22;1667;53.238;10.394;2022-09-01T13:58:40;25.50;56.10
3310;DHT22;1667;53.238;10.394;2022-09-01T14:03:42;25.50;56.20
3310;DHT22;1667;53.238;10.394;2022-09-01T14:08:48;25.50;56.50
3310;DHT22;1667;53.238;10.394;2022-09-01T14:13:47;25.60;56.60
3310;DHT22;1667;53.238;10.394;2022-09-01T14:18:45;25.50;56.60
3310;DHT22;1667;53.238;10.394;2022-09-01T14:23:44;25.30;56.60
3310;DHT22;1667;53.238;10.394;2022-09-01T14:28:45;25.30;56.40
3310;DHT22;1667;53.238;10.394;2022-09-01T14:33:44;25.30;57.10
3310;DHT22;1667;53.238;10.394;2022-09-01T14:38:43;25.30;57.40
3310;DHT22;1667;53.238;10.394;2022-09-01T14:43:41;25.30;56.90
3310;DHT22;1667;53.238;10.394;2022-09-01T14:48:41;25.10;57.10
3310;DHT22;1667;53.238;10.394;2022-09-01T14:53:39;24.90;57.40
3310;DHT22;1667;53.238;10.394;2022-09-01T14:58:37;24.80;58.60
3310;DHT22;1667;53.238;10.394;2022-09-01T15:03:38;24.40;59.20
3310;DHT22;1667;53.238;10.394;2022-09-01T15:08:37;24.30;59.40
3310;DHT22;1667;53.238;10.394;2022-09-01T15:13:36;24.30;59.00
3310;DHT22;1667;53.238;10.394;2022-09-01T15:18:34;24.20;58.90
3310;DHT22;1667;53.238;10.394;2022-09-01T15:23:33;23.90;59.00
3310;DHT22;1667;53.238;10.394;2022-09-01T15:28:33;23.70;59.20
3310;DHT22;1667;53.238;10.394;2022-09-01T15:33:31;23.60;59.40
3310;DHT22;1667;53.238;10.394;2022-09-01T15:38:32;23.50;59.80
3310;DHT22;1667;53.238;10.394;2022-09-01T15:43:33;23.40;60.20
3310;DHT22;1667;53.238;10.394;2022-09-01T15:48:32;23.60;60.90
3310;DHT22;1667;53.238;10.394;2022-09-01T15:53:30;23.40;60.20
3310;DHT22;1667;53.238;10.394;2022-09-01T15:58:29;23.50;60.10
3310;DHT22;1667;53.238;10.394;2022-09-01T16:03:48;23.50;60.40
3310;DHT22;1667;53.238;10.394;2022-09-01T16:08:46;23.30;59.90
3310;DHT22;1667;53.238;10.394;2022-09-01T16:13:45;23.30;60.50
3310;DHT22;1667;53.238;10.394;2022-09-01T16:18:50;23.40;59.90
3310;DHT22;1667;53.238;10.394;2022-09-01T16:23:51;23.40;60.40
3310;DHT22;1667;53.238;10.394;2022-09-01T16:28:51;23.50;60.10
3310;DHT22;1667;53.238;10.394;2022-09-01T16:33:55;23.40;59.80
3310;DHT22;1667;53.238;10.394;2022-09-01T16:39:04;23.20;60.10
3310;DHT22;1667;53.238;10.394;2022-09-01T16:44:16;23.30;60.80
3310;DHT22;1667;53.238;10.394;2022-09-01T16:49:23;23.30;60.70
3310;DHT22;1667;53.238;10.394;2022-09-01T16:54:29;23.20;61.10
3310;DHT22;1667;53.238;10.394;2022-09-01T16:59:33;23.20;61.30
3310;DHT22;1667;53.238;10.394;2022-09-01T17:04:39;23.20;61.20
3310;DHT22;1667;53.238;10.394;2022-09-01T17:09:41;23.10;61.50
3310;DHT22;1667;53.238;10.394;2022-09-01T17:14:44;23.00;61.70
3310;DHT22;1667;53.238;10.394;2022-09-01T17:19:46;23.00;62.10
3310;DHT22;1667;53.238;10.394;2022-09-01T17:24:51;22.90;61.70
3310;DHT22;1667;53.238;10.394;2022-09-01T17:29:52;22.80;61.90
3310;DHT22;1667;53.238;10.394;2022-09-01T17:35:00;22.80;62.50
3310;DHT22;1667;53.238;10.394;2022-09-01T17:40:11;22.80;62.30
3310;DHT22;1667;53.238;10.394;2022-09-01T17:45:19;22.70;62.20
3310;DHT22;1667;53.238;10.394;2022-09-01T17:50:28;22.60;62.90
3310;DHT22;1667;53.238;10.394;2022-09-01T17:55:38;22.60;63.40
3310;DHT22;1667;53.238;10.394;2022-09-01T18:00:43;22.50;63.00
3310;DHT22;1667;53.238;10.394;2022-09-01T18:05:49;22.40;64.10
3310;DHT22;1667;53.238;10.394;2022-09-01T18:10:53;22.30;64.80
3310;DHT22;1667;53.238;10.394;2022-09-01T18:15:54;22.10;64.50
3310;DHT22;1667;53.238;10.394;2022-09-01T18:21:03;22.00;63.70
3310;DHT22;1667;53.238;10.394;2022-09-01T18:26:07;21.50;65.00
3310;DHT22;1667;53.238;10.394;2022-09-01T18:31:16;21.20;65.60
3310;DHT22;1667;53.238;10.394;2022-09-01T18:36:31;21.00;66.10
3310;DHT22;1667;53.238;10.394;2022-09-01T18:41:37;20.80;66.40
3310;DHT22;1667;53.238;10.394;2022-09-01T18:46:40;20.70;67.20
3310;DHT22;1667;53.238;10.394;2022-09-01T18:51:59;20.60;67.90
3310;DHT22;1667;53.238;10.394;2022-09-01T18:57:03;20.60;67.20
3310;DHT22;1667;53.238;10.394;2022-09-01T19:02:12;20.50;67.60
3310;DHT22;1667;53.238;10.394;2022-09-01T19:07:22;20.40;68.10
3310;DHT22;1667;53.238;10.394;2022-09-01T19:12:27;20.30;68.40
3310;DHT22;1667;53.238;10.394;2022-09-01T19:17:44;20.10;68.70
3310;DHT22;1667;53.238;10.394;2022-09-01T19:22:52;20.10;68.90
3310;DHT22;1667;53.238;10.394;2022-09-01T19:27:57;19.90;69.40
3310;DHT22;1667;53.238;10.394;2022-09-01T19:32:58;19.70;70.10
3310;DHT22;1667;53.238;10.394;2022-09-01T19:38:03;19.70;70.30
3310;DHT22;1667;53.238;10.394;2022-09-01T19:43:05;19.60;70.10
3310;DHT22;1667;53.238;10.394;2022-09-01T19:48:07;19.50;70.80
3310;DHT22;1667;53.238;10.394;2022-09-01T19:53:24;19.50;71.20
3310;DHT22;1667;53.238;10.394;2022-09-01T19:58:30;19.50;71.80
3310;DHT22;1667;53.238;10.394;2022-09-01T20:03:34;19.70;71.20
3310;DHT22;1667;53.238;10.394;2022-09-01T20:08:38;19.70;70.90
3310;DHT22;1667;53.238;10.394;2022-09-01T20:14:04;19.60;71.60
3310;DHT22;1667;53.238;10.394;2022-09-01T20:19:07;19.60;71.60
3310;DHT22;1667;53.238;10.394;2022-09-01T20:24:15;19.60;72.00
3310;DHT22;1667;53.238;10.394;2022-09-01T20:29:19;19.50;72.50
3310;DHT22;1667;53.238;10.394;2022-09-01T20:34:26;19.50;72.30
3310;DHT22;1667;53.238;10.394;2022-09-01T20:39:35;19.50;72.40
3310;DHT22;1667;53.238;10.394;2022-09-01T20:44:56;19.40;72.50
3310;DHT22;1667;53.238;10.394;2022-09-01T20:49:56;19.30;72.90
3310;DHT22;1667;53.238;10.394;2022-09-01T20:54:59;19.30;72.80
3310;DHT22;1667;53.238;10.394;2022-09-01T21:00:07;19.30;72.70
3310;DHT22;1667;53.238;10.394;2022-09-01T21:05:16;19.30;73.20
3310;DHT22;1667;53.238;10.394;2022-09-01T21:10:23;19.40;73.20
3310;DHT22;1667;53.238;10.394;2022-09-01T21:15:32;19.30;73.40
3310;DHT22;1667;53.238;10.394;2022-09-01T21:20:42;19.30;74.10
3310;DHT22;1667;53.238;10.394;2022-09-01T21:25:43;19.20;74.10
3310;DHT22;1667;53.238;10.394;2022-09-01T21:30:42;19.20;74.40
3310;DHT22;1667;53.238;10.394;2022-09-01T21:35:40;19.10;74.00
3310;DHT22;1667;53.238;10.394;2022-09-01T21:40:39;19.00;74.40
3310;DHT22;1667;53.238;10.394;2022-09-01T21:45:40;19.00;75.10
3310;DHT22;1667;53.238;10.394;2022-09-01T21:50:38;18.90;74.90
3310;DHT22;1667;53.238;10.394;2022-09-01T21:55:37;18.90;75.20
3310;DHT22;1667;53.238;10.394;2022-09-01T22:00:36;18.80;75.10
3310;DHT22;1667;53.238;10.394;2022-09-01T22:05:39;18.80;75.50
3310;DHT22;1667;53.238;10.394;2022-09-01T22:10:41;18.70;75.30
3310;DHT22;1667;53.238;10.394;2022-09-01T22:15:42;18.60;75.20
3310;DHT22;1667;53.238;10.394;2022-09-01T22:20:42;18.60;75.40
3310;DHT22;1667;53.238;10.394;2022-09-01T22:25:43;18.50;75.40
3310;DHT22;1667;53.238;10.394;2022-09-01T22:30:44;18.40;75.60
3310;DHT22;1667;53.238;10.394;2022-09-01T22:35:46;18.40;76.30
3310;DHT22;1667;53.238;10.394;2022-09-01T22:40:46;18.30;76.40
3310;DHT22;1667;53.238;10.394;2022-09-01T22:45:45;18.20;76.30
3310;DHT22;1667;53.238;10.394;2022-09-01T22:50:46;18.20;77.00
3310;DHT22;1667;53.238;10.394;2022-09-01T22:55:49;18.10;77.00
3310;DHT22;1667;53.238;10.394;2022-09-01T23:00:49;18.00;77.40
3310;DHT22;1667;53.238;10.394;2022-09-01T23:05:59;17.90;77.60
3310;DHT22;1667;53.238;10.394;2022-09-01T23:10:58;17.90;77.50
3310;DHT22;1667;53.238;10.394;2022-09-01T23:15:57;17.80;78.70
3310;DHT22;1667;53.238;10.394;2022-09-01T23:20:58;17.70;78.10
3310;DHT22;1667;53.238;10.394;2022-09-01T23:25:58;17.70;78.90
3310;DHT22;1667;53.238;10.394;2022-09-01T23:30:57;17.70;78.60
3310;DHT22;1667;53.238;10.394;2022-09-01T23:35:57;17.60;79.30
3310;DHT22;1667;53.238;10.394;2022-09-01T23:40:56;17.50;79.20
3310;DHT22;1667;53.238;10.394;2022-09-01T23:45:55;17.50;79.20
3310;DHT22;1667;53.238;10.394;2022-09-01T23:50:57;17.50;79.50
3310;DHT22;1667;53.238;10.394;2022-09-01T23:55:57;17.50;79.40
